M/y Kaiser — ZGAY5 — position and weather

sailwx.info

Track history (hours):
 
Tides and Currents Weather Stations Pressure Air Temp Water Temp Dewpoint Dewpoint Depression Visibility Wind Speed Wind Dir Waves Ship Positions

M/y Kaiser

Last reported at 2014-Nov-29 00:33 UTC. Time now 2014-Nov-29 01:20 UTC.
Position N 37°56' E 023°39'.

Length 60 m; draft 3.5 m.

Type: Pleasure craft. MMSI: 319022600.

Date/timePositionNaut miles runAvg speedWind from/ knotsBaromVisibWave heightAir tempDewpointWater temp
2014-Nov-29 00:33N 37°56' E 023°39'0 0.0
2014-Nov-28 23:33N 37°56' E 023°39'0 0.0
2014-Nov-28 22:33N 37°56' E 023°39'0 0.0
2014-Nov-28 21:33N 37°56' E 023°39'0 0.0
2014-Nov-28 20:33N 37°56' E 023°39'0 0.0
2014-Nov-28 19:33N 37°56' E 023°39'0 0.0
2014-Nov-28 18:33N 37°56' E 023°39'0 0.0
2014-Nov-28 17:33N 37°56' E 023°39'0 0.0
2014-Nov-28 16:33N 37°56' E 023°39'0 0.0
2014-Nov-28 15:33N 37°56' E 023°39'0 0.0
2014-Nov-28 14:33N 37°56' E 023°39'0 0.0
2014-Nov-28 13:33N 37°56' E 023°39'0 0.0
2014-Nov-28 12:33N 37°56' E 023°39'0 0.0
2014-Nov-28 11:33N 37°56' E 023°39'1 0.9
2014-Nov-28 10:33N 37°55' E 023°40'10 9.8
2014-Nov-28 09:33N 37°48' E 023°49'0 0.2
2014-Nov-28 08:33N 37°49' E 023°48'4 4.5
2014-Nov-28 07:33N 37°49' E 023°43'8 7.7
2014-Nov-28 06:31N 37°56' E 023°39'0 0.0
2014-Nov-28 05:31N 37°56' E 023°39'0 0.0
2014-Nov-28 04:31N 37°56' E 023°39'0 0.0
2014-Nov-28 03:31N 37°56' E 023°39'0 0.0
2014-Nov-28 02:31N 37°56' E 023°39'0 0.0
2014-Nov-28 01:31N 37°56' E 023°39'0 0.0
2014-Nov-28 00:31N 37°56' E 023°39'0 0.0
2014-Nov-27 23:31N 37°56' E 023°39'0 0.0
2014-Nov-27 22:31N 37°56' E 023°39'0 0.0
2014-Nov-27 21:31N 37°56' E 023°39'0 0.0
2014-Nov-27 20:31N 37°56' E 023°39'0 0.0
2014-Nov-27 19:31N 37°56' E 023°39'0 0.0
2014-Nov-27 18:31N 37°56' E 023°39'0 0.0
2014-Nov-27 17:31N 37°56' E 023°39'0 0.0
2014-Nov-27 16:31N 37°56' E 023°39'0 0.0
2014-Nov-27 15:31N 37°56' E 023°39'0 0.0
2014-Nov-27 14:31N 37°56' E 023°39'0 0.0
2014-Nov-27 13:31N 37°56' E 023°39'0 0.0
2014-Nov-27 12:31N 37°56' E 023°39'0 0.0
2014-Nov-27 11:31N 37°56' E 023°39'0 0.0
2014-Nov-27 10:31N 37°56' E 023°39'0 0.0
2014-Nov-27 09:31N 37°56' E 023°39'0 0.0
2014-Nov-27 08:31N 37°56' E 023°39'0 0.0
2014-Nov-27 07:31N 37°56' E 023°39'0 0.0
2014-Nov-27 06:28N 37°56' E 023°39'0 0.0
2014-Nov-27 05:31N 37°56' E 023°39'0 0.0
2014-Nov-27 04:31N 37°56' E 023°39'0 0.0
2014-Nov-27 03:31N 37°56' E 023°39'0 0.0
2014-Nov-27 02:31N 37°56' E 023°39'0 0.0
2014-Nov-27 01:31N 37°56' E 023°39'0 0.0
2014-Nov-27 00:31N 37°56' E 023°39'0 0.0
2014-Nov-26 23:31N 37°56' E 023°39'0 0.0
2014-Nov-26 22:31N 37°56' E 023°39'0 0.0
2014-Nov-26 21:31N 37°56' E 023°39'0 0.0
2014-Nov-26 20:31N 37°56' E 023°39'0 0.0
2014-Nov-26 19:25N 37°56' E 023°39'0 0.0
2014-Nov-26 18:31N 37°56' E 023°39'0 0.0
2014-Nov-26 17:31N 37°56' E 023°39'0 0.0
2014-Nov-26 16:31N 37°56' E 023°39'0 0.0
2014-Nov-26 15:31N 37°56' E 023°39'0 0.0
2014-Nov-26 14:31N 37°56' E 023°39'0 0.0
2014-Nov-26 13:31N 37°56' E 023°39'0 0.0
2014-Nov-26 12:31N 37°56' E 023°39'0 0.0
2014-Nov-26 11:31N 37°56' E 023°39'0 0.0
2014-Nov-26 10:31N 37°56' E 023°39'0 0.0
2014-Nov-26 09:31N 37°56' E 023°39'0 0.0
2014-Nov-26 08:31N 37°56' E 023°39'0 0.0
2014-Nov-26 07:31N 37°56' E 023°39'0 0.0
2014-Nov-26 06:31N 37°56' E 023°39'0 0.0
2014-Nov-26 05:31N 37°56' E 023°39'0 0.0
2014-Nov-26 04:31N 37°56' E 023°39'0 0.0
2014-Nov-26 03:31N 37°56' E 023°39'0 0.0
2014-Nov-26 02:31N 37°56' E 023°39'0 0.0
2014-Nov-26 01:31N 37°56' E 023°39'0 0.0
2014-Nov-26 00:31N 37°56' E 023°39'0 0.0
2014-Nov-25 23:31N 37°56' E 023°39'0 0.0
2014-Nov-25 22:31N 37°56' E 023°39'0 0.0
2014-Nov-25 21:31N 37°56' E 023°39'0 0.0
2014-Nov-25 20:31N 37°56' E 023°39'0 0.0
2014-Nov-25 19:31N 37°56' E 023°39'0 0.0
2014-Nov-25 18:31N 37°56' E 023°39'0 0.0
2014-Nov-25 17:31N 37°56' E 023°39'0 0.0
2014-Nov-25 16:31N 37°56' E 023°39'0 0.0
2014-Nov-25 15:28N 37°56' E 023°39'0 0.0
2014-Nov-25 14:31N 37°56' E 023°39'0 0.0
2014-Nov-25 13:31N 37°56' E 023°39'0 0.0
2014-Nov-25 12:31N 37°56' E 023°39'0 0.0
2014-Nov-25 11:31N 37°56' E 023°39'0 0.0
2014-Nov-25 10:31N 37°56' E 023°39'0 0.0
2014-Nov-25 09:31N 37°56' E 023°39'0 0.0
2014-Nov-25 08:31N 37°56' E 023°39'0 0.0
2014-Nov-25 07:31N 37°56' E 023°39'0 0.0
2014-Nov-25 06:31N 37°56' E 023°39'0 0.0
2014-Nov-25 05:31N 37°56' E 023°39'0 0.0
2014-Nov-25 04:31N 37°56' E 023°39'0 0.0
2014-Nov-25 03:31N 37°56' E 023°39'0 0.0
2014-Nov-25 02:31N 37°56' E 023°39'0 0.0
2014-Nov-25 01:31N 37°56' E 023°39'0 0.0
2014-Nov-25 00:31N 37°56' E 023°39'0 0.0
2014-Nov-24 23:31N 37°56' E 023°39'0 0.0
2014-Nov-24 22:31N 37°56' E 023°39'0 0.0
2014-Nov-24 21:31N 37°56' E 023°39'0 0.0
2014-Nov-24 20:31N 37°56' E 023°39'0 0.0
2014-Nov-24 19:31N 37°56' E 023°39'0 0.0
2014-Nov-24 18:31N 37°56' E 023°39'0 0.0
2014-Nov-24 17:31N 37°56' E 023°39'0 0.0
2014-Nov-24 16:31N 37°56' E 023°39'0 0.0
2014-Nov-24 15:31N 37°56' E 023°39'0 0.0
2014-Nov-24 14:31N 37°56' E 023°39'0 0.0
2014-Nov-24 13:31N 37°56' E 023°39'0 0.0
2014-Nov-24 12:31N 37°56' E 023°39'0 0.0
2014-Nov-24 11:31N 37°56' E 023°39'0 0.0
2014-Nov-24 10:31N 37°56' E 023°39'0 0.0
2014-Nov-24 09:31N 37°56' E 023°39'0 0.0
2014-Nov-24 08:31N 37°56' E 023°39'0 0.0
2014-Nov-24 07:31N 37°56' E 023°39'0 0.0
2014-Nov-24 06:31N 37°56' E 023°39'0 0.0
2014-Nov-24 05:31N 37°56' E 023°39'0 0.0
2014-Nov-24 04:31N 37°56' E 023°39'0 0.0
2014-Nov-24 03:31N 37°56' E 023°39'0 0.0
2014-Nov-24 02:31N 37°56' E 023°39'0 0.0
2014-Nov-24 01:31N 37°56' E 023°39'0 0.0
2014-Nov-24 00:31N 37°56' E 023°39'0 0.0
2014-Nov-23 23:31N 37°56' E 023°39'0 0.0
2014-Nov-23 22:31N 37°56' E 023°39'0 0.0
2014-Nov-23 21:31N 37°56' E 023°39'0 0.0
2014-Nov-23 20:31N 37°56' E 023°39'0 0.0
2014-Nov-23 19:31N 37°56' E 023°39'0 0.0
2014-Nov-23 18:31N 37°56' E 023°39'0 0.0
2014-Nov-23 17:31N 37°56' E 023°39'0 0.0
2014-Nov-23 16:31N 37°56' E 023°39'0 0.0
2014-Nov-23 15:31N 37°56' E 023°39'0 0.0
2014-Nov-23 14:31N 37°56' E 023°39'0 0.0
2014-Nov-23 13:31N 37°56' E 023°39'0 0.0
2014-Nov-23 12:31N 37°56' E 023°39'0 0.0
2014-Nov-23 11:31N 37°56' E 023°39'0 0.0
2014-Nov-23 10:31N 37°56' E 023°39'0 0.0
2014-Nov-23 09:31N 37°56' E 023°39'0 0.0
2014-Nov-23 08:31N 37°56' E 023°39'0 0.0
2014-Nov-23 07:31N 37°56' E 023°39'0 0.0
2014-Nov-23 06:31N 37°56' E 023°39'0 0.0
2014-Nov-23 05:31N 37°56' E 023°39'0 0.0
2014-Nov-23 04:31N 37°56' E 023°39'0 0.0
2014-Nov-23 03:31N 37°56' E 023°39'0 0.0
2014-Nov-23 02:31N 37°56' E 023°39'0 0.0
2014-Nov-23 01:31N 37°56' E 023°39'0 0.0
2014-Nov-23 00:28N 37°56' E 023°39'0 0.0
2014-Nov-22 23:31N 37°56' E 023°39'0 0.0
2014-Nov-22 22:31N 37°56' E 023°39'0 0.0
2014-Nov-22 21:28N 37°56' E 023°39'0 0.0
2014-Nov-22 20:28N 37°56' E 023°39'0 0.0
2014-Nov-22 19:31N 37°56' E 023°39'0 0.0
2014-Nov-22 18:31N 37°56' E 023°39'0 0.0
2014-Nov-22 17:31N 37°56' E 023°39'0 0.0
2014-Nov-22 16:31N 37°56' E 023°39'0 0.0
2014-Nov-22 15:31N 37°56' E 023°39'0 0.0
2014-Nov-22 14:31N 37°56' E 023°39'0 0.0
2014-Nov-22 13:31N 37°56' E 023°39'0 0.0
2014-Nov-22 12:31N 37°56' E 023°39'0 0.0
2014-Nov-22 11:31N 37°56' E 023°39'0 0.0
2014-Nov-22 10:31N 37°56' E 023°39'0 0.0
2014-Nov-22 09:31N 37°56' E 023°39'0 0.0
2014-Nov-22 08:31N 37°56' E 023°39'0 0.0
2014-Nov-22 07:31N 37°56' E 023°39'0 0.0
2014-Nov-22 06:31N 37°56' E 023°39'0 0.0
2014-Nov-22 05:31N 37°56' E 023°39'0 0.0
2014-Nov-22 04:31N 37°56' E 023°39'0 0.0
2014-Nov-22 03:31N 37°56' E 023°39'0 0.0
2014-Nov-22 02:31N 37°56' E 023°39'0 0.0
2014-Nov-22 01:31N 37°56' E 023°39'0 0.0
2014-Nov-22 00:31N 37°56' E 023°39'0 0.0
2014-Nov-21 23:31N 37°56' E 023°39'0 0.0
2014-Nov-21 22:31N 37°56' E 023°39'0 0.0
2014-Nov-21 21:31N 37°56' E 023°39'0 0.0
2014-Nov-21 20:31N 37°56' E 023°39'0 0.0
2014-Nov-21 19:31N 37°56' E 023°39'0 0.0
2014-Nov-21 18:31N 37°56' E 023°39'0 0.0
2014-Nov-21 17:31N 37°56' E 023°39'0 0.0
2014-Nov-21 16:31N 37°56' E 023°39'0 0.0
2014-Nov-21 15:31N 37°56' E 023°39'0 0.0
2014-Nov-21 14:31N 37°56' E 023°39'0 0.0
2014-Nov-21 13:31N 37°56' E 023°39'0 0.0
2014-Nov-21 12:31N 37°56' E 023°39'0 0.0
2014-Nov-21 11:28N 37°56' E 023°39'0 0.0
2014-Nov-21 10:31N 37°56' E 023°39'0 0.0
2014-Nov-21 09:31N 37°56' E 023°39'0 0.0
2014-Nov-21 08:31N 37°56' E 023°39'0 0.0
2014-Nov-21 07:31N 37°56' E 023°39'0 0.0
2014-Nov-21 06:31N 37°56' E 023°39'0 0.0
2014-Nov-21 05:25N 37°56' E 023°39'0 0.0
2014-Nov-21 04:31N 37°56' E 023°39'0 0.0
2014-Nov-21 03:28N 37°56' E 023°39'0 0.0
2014-Nov-21 02:31N 37°56' E 023°39'0 0.0
2014-Nov-21 01:31N 37°56' E 023°39'0 0.0
2014-Nov-21 00:31N 37°56' E 023°39'0 0.0
2014-Nov-20 23:31N 37°56' E 023°39'0 0.0
2014-Nov-20 22:31N 37°56' E 023°39'0 0.0
2014-Nov-20 21:31N 37°56' E 023°39'0 0.0
2014-Nov-20 20:31N 37°56' E 023°39'0 0.0
2014-Nov-20 19:31N 37°56' E 023°39'0 0.0
2014-Nov-20 18:31N 37°56' E 023°39'0 0.0
2014-Nov-20 17:31N 37°56' E 023°39'0 0.0
2014-Nov-20 16:31N 37°56' E 023°39'0 0.0
2014-Nov-20 15:31N 37°56' E 023°39'0 0.0
2014-Nov-20 14:31N 37°56' E 023°39'0 0.0
2014-Nov-20 13:31N 37°56' E 023°39'0 0.0
2014-Nov-20 12:31N 37°56' E 023°39'0 0.0
2014-Nov-20 11:31N 37°56' E 023°39'0 0.0
2014-Nov-20 10:31N 37°56' E 023°39'0 0.0
2014-Nov-20 09:31N 37°56' E 023°39'0 0.0
2014-Nov-20 08:31N 37°56' E 023°39'0 0.0
2014-Nov-20 07:31N 37°56' E 023°39'0 0.0
2014-Nov-20 06:31N 37°56' E 023°39'0 0.0
2014-Nov-20 05:31N 37°56' E 023°39'0 0.0
2014-Nov-20 04:31N 37°56' E 023°39'0 0.0
2014-Nov-20 03:31N 37°56' E 023°39'0 0.0
2014-Nov-20 02:31N 37°56' E 023°39'0 0.0
2014-Nov-20 01:28N 37°56' E 023°39'0 0.0
2014-Nov-20 00:31N 37°56' E 023°39'0 0.0
2014-Nov-19 23:31N 37°56' E 023°39'0 0.0
2014-Nov-19 22:31N 37°56' E 023°39'0 0.0
2014-Nov-19 21:31N 37°56' E 023°39'0 0.0
2014-Nov-19 20:31N 37°56' E 023°39'0 0.0
2014-Nov-19 19:31N 37°56' E 023°39'0 0.0
2014-Nov-19 18:31N 37°56' E 023°39'0 0.0
2014-Nov-19 17:31N 37°56' E 023°39'0 0.0
2014-Nov-19 16:31N 37°56' E 023°39'0 0.0
2014-Nov-19 15:31N 37°56' E 023°39'0 0.0
2014-Nov-19 14:31N 37°56' E 023°39'0 0.0
2014-Nov-19 13:31N 37°56' E 023°39'0 0.0
2014-Nov-19 12:31N 37°56' E 023°39'0 0.0
2014-Nov-19 11:31N 37°56' E 023°39'0 0.0
2014-Nov-19 10:31N 37°56' E 023°39'0 0.0
2014-Nov-19 09:31N 37°56' E 023°39'0 0.0
2014-Nov-19 08:31N 37°56' E 023°39'0 0.0
2014-Nov-19 07:31N 37°56' E 023°39'0 0.0
2014-Nov-19 06:28N 37°56' E 023°39'0 0.0
2014-Nov-19 05:31N 37°56' E 023°39'0 0.0
2014-Nov-19 04:28N 37°56' E 023°39'0 0.0
2014-Nov-19 03:31N 37°56' E 023°39'0 0.0
2014-Nov-19 02:31N 37°56' E 023°39'0 0.0
2014-Nov-19 01:31N 37°56' E 023°39'  
Track history (hours):
 
Tides and Currents Weather Stations Pressure Air Temp Water Temp Dewpoint Dewpoint Depression Visibility Wind Speed Wind Dir Waves Ship Positions

M/y Kaiser

Last reported at 2014-Nov-29 00:33 UTC. Time now 2014-Nov-29 01:20 UTC.
Position N 37°56' E 023°39'.

Length 60 m; draft 3.5 m.

Type: Pleasure craft. MMSI: 319022600.

Date/timePositionNaut miles runAvg speedWind from/ knotsBaromVisibWave heightAir tempDewpointWater temp
2014-Nov-29 00:33N 37°56' E 023°39'0 0.0
2014-Nov-28 23:33N 37°56' E 023°39'0 0.0
2014-Nov-28 22:33N 37°56' E 023°39'0 0.0
2014-Nov-28 21:33N 37°56' E 023°39'0 0.0
2014-Nov-28 20:33N 37°56' E 023°39'0 0.0
2014-Nov-28 19:33N 37°56' E 023°39'0 0.0
2014-Nov-28 18:33N 37°56' E 023°39'0 0.0
2014-Nov-28 17:33N 37°56' E 023°39'0 0.0
2014-Nov-28 16:33N 37°56' E 023°39'0 0.0
2014-Nov-28 15:33N 37°56' E 023°39'0 0.0
2014-Nov-28 14:33N 37°56' E 023°39'0 0.0
2014-Nov-28 13:33N 37°56' E 023°39'0 0.0
2014-Nov-28 12:33N 37°56' E 023°39'0 0.0
2014-Nov-28 11:33N 37°56' E 023°39'1 0.9
2014-Nov-28 10:33N 37°55' E 023°40'10 9.8
2014-Nov-28 09:33N 37°48' E 023°49'0 0.2
2014-Nov-28 08:33N 37°49' E 023°48'4 4.5
2014-Nov-28 07:33N 37°49' E 023°43'8 7.7
2014-Nov-28 06:31N 37°56' E 023°39'0 0.0
2014-Nov-28 05:31N 37°56' E 023°39'0 0.0
2014-Nov-28 04:31N 37°56' E 023°39'0 0.0
2014-Nov-28 03:31N 37°56' E 023°39'0 0.0
2014-Nov-28 02:31N 37°56' E 023°39'0 0.0
2014-Nov-28 01:31N 37°56' E 023°39'0 0.0
2014-Nov-28 00:31N 37°56' E 023°39'0 0.0
2014-Nov-27 23:31N 37°56' E 023°39'0 0.0
2014-Nov-27 22:31N 37°56' E 023°39'0 0.0
2014-Nov-27 21:31N 37°56' E 023°39'0 0.0
2014-Nov-27 20:31N 37°56' E 023°39'0 0.0
2014-Nov-27 19:31N 37°56' E 023°39'0 0.0
2014-Nov-27 18:31N 37°56' E 023°39'0 0.0
2014-Nov-27 17:31N 37°56' E 023°39'0 0.0
2014-Nov-27 16:31N 37°56' E 023°39'0 0.0
2014-Nov-27 15:31N 37°56' E 023°39'0 0.0
2014-Nov-27 14:31N 37°56' E 023°39'0 0.0
2014-Nov-27 13:31N 37°56' E 023°39'0 0.0
2014-Nov-27 12:31N 37°56' E 023°39'0 0.0
2014-Nov-27 11:31N 37°56' E 023°39'0 0.0
2014-Nov-27 10:31N 37°56' E 023°39'0 0.0
2014-Nov-27 09:31N 37°56' E 023°39'0 0.0
2014-Nov-27 08:31N 37°56' E 023°39'0 0.0
2014-Nov-27 07:31N 37°56' E 023°39'0 0.0
2014-Nov-27 06:28N 37°56' E 023°39'0 0.0
2014-Nov-27 05:31N 37°56' E 023°39'0 0.0
2014-Nov-27 04:31N 37°56' E 023°39'0 0.0
2014-Nov-27 03:31N 37°56' E 023°39'0 0.0
2014-Nov-27 02:31N 37°56' E 023°39'0 0.0
2014-Nov-27 01:31N 37°56' E 023°39'0 0.0
2014-Nov-27 00:31N 37°56' E 023°39'0 0.0
2014-Nov-26 23:31N 37°56' E 023°39'0 0.0
2014-Nov-26 22:31N 37°56' E 023°39'0 0.0
2014-Nov-26 21:31N 37°56' E 023°39'0 0.0
2014-Nov-26 20:31N 37°56' E 023°39'0 0.0
2014-Nov-26 19:25N 37°56' E 023°39'0 0.0
2014-Nov-26 18:31N 37°56' E 023°39'0 0.0
2014-Nov-26 17:31N 37°56' E 023°39'0 0.0
2014-Nov-26 16:31N 37°56' E 023°39'0 0.0
2014-Nov-26 15:31N 37°56' E 023°39'0 0.0
2014-Nov-26 14:31N 37°56' E 023°39'0 0.0
2014-Nov-26 13:31N 37°56' E 023°39'0 0.0
2014-Nov-26 12:31N 37°56' E 023°39'0 0.0
2014-Nov-26 11:31N 37°56' E 023°39'0 0.0
2014-Nov-26 10:31N 37°56' E 023°39'0 0.0
2014-Nov-26 09:31N 37°56' E 023°39'0 0.0
2014-Nov-26 08:31N 37°56' E 023°39'0 0.0
2014-Nov-26 07:31N 37°56' E 023°39'0 0.0
2014-Nov-26 06:31N 37°56' E 023°39'0 0.0
2014-Nov-26 05:31N 37°56' E 023°39'0 0.0
2014-Nov-26 04:31N 37°56' E 023°39'0 0.0
2014-Nov-26 03:31N 37°56' E 023°39'0 0.0
2014-Nov-26 02:31N 37°56' E 023°39'0 0.0
2014-Nov-26 01:31N 37°56' E 023°39'0 0.0
2014-Nov-26 00:31N 37°56' E 023°39'0 0.0
2014-Nov-25 23:31N 37°56' E 023°39'0 0.0
2014-Nov-25 22:31N 37°56' E 023°39'0 0.0
2014-Nov-25 21:31N 37°56' E 023°39'0 0.0
2014-Nov-25 20:31N 37°56' E 023°39'0 0.0
2014-Nov-25 19:31N 37°56' E 023°39'0 0.0
2014-Nov-25 18:31N 37°56' E 023°39'0 0.0
2014-Nov-25 17:31N 37°56' E 023°39'0 0.0
2014-Nov-25 16:31N 37°56' E 023°39'0 0.0
2014-Nov-25 15:28N 37°56' E 023°39'0 0.0
2014-Nov-25 14:31N 37°56' E 023°39'0 0.0
2014-Nov-25 13:31N 37°56' E 023°39'0 0.0
2014-Nov-25 12:31N 37°56' E 023°39'0 0.0
2014-Nov-25 11:31N 37°56' E 023°39'0 0.0
2014-Nov-25 10:31N 37°56' E 023°39'0 0.0
2014-Nov-25 09:31N 37°56' E 023°39'0 0.0
2014-Nov-25 08:31N 37°56' E 023°39'0 0.0
2014-Nov-25 07:31N 37°56' E 023°39'0 0.0
2014-Nov-25 06:31N 37°56' E 023°39'0 0.0
2014-Nov-25 05:31N 37°56' E 023°39'0 0.0
2014-Nov-25 04:31N 37°56' E 023°39'0 0.0
2014-Nov-25 03:31N 37°56' E 023°39'0 0.0
2014-Nov-25 02:31N 37°56' E 023°39'0 0.0
2014-Nov-25 01:31N 37°56' E 023°39'0 0.0
2014-Nov-25 00:31N 37°56' E 023°39'0 0.0
2014-Nov-24 23:31N 37°56' E 023°39'0 0.0
2014-Nov-24 22:31N 37°56' E 023°39'0 0.0
2014-Nov-24 21:31N 37°56' E 023°39'0 0.0
2014-Nov-24 20:31N 37°56' E 023°39'0 0.0
2014-Nov-24 19:31N 37°56' E 023°39'0 0.0
2014-Nov-24 18:31N 37°56' E 023°39'0 0.0
2014-Nov-24 17:31N 37°56' E 023°39'0 0.0
2014-Nov-24 16:31N 37°56' E 023°39'0 0.0
2014-Nov-24 15:31N 37°56' E 023°39'0 0.0
2014-Nov-24 14:31N 37°56' E 023°39'0 0.0
2014-Nov-24 13:31N 37°56' E 023°39'0 0.0
2014-Nov-24 12:31N 37°56' E 023°39'0 0.0
2014-Nov-24 11:31N 37°56' E 023°39'0 0.0
2014-Nov-24 10:31N 37°56' E 023°39'0 0.0
2014-Nov-24 09:31N 37°56' E 023°39'0 0.0
2014-Nov-24 08:31N 37°56' E 023°39'0 0.0
2014-Nov-24 07:31N 37°56' E 023°39'0 0.0
2014-Nov-24 06:31N 37°56' E 023°39'0 0.0
2014-Nov-24 05:31N 37°56' E 023°39'0 0.0
2014-Nov-24 04:31N 37°56' E 023°39'0 0.0
2014-Nov-24 03:31N 37°56' E 023°39'0 0.0
2014-Nov-24 02:31N 37°56' E 023°39'0 0.0
2014-Nov-24 01:31N 37°56' E 023°39'0 0.0
2014-Nov-24 00:31N 37°56' E 023°39'0 0.0
2014-Nov-23 23:31N 37°56' E 023°39'0 0.0
2014-Nov-23 22:31N 37°56' E 023°39'0 0.0
2014-Nov-23 21:31N 37°56' E 023°39'0 0.0
2014-Nov-23 20:31N 37°56' E 023°39'0 0.0
2014-Nov-23 19:31N 37°56' E 023°39'0 0.0
2014-Nov-23 18:31N 37°56' E 023°39'0 0.0
2014-Nov-23 17:31N 37°56' E 023°39'0 0.0
2014-Nov-23 16:31N 37°56' E 023°39'0 0.0
2014-Nov-23 15:31N 37°56' E 023°39'0 0.0
2014-Nov-23 14:31N 37°56' E 023°39'0 0.0
2014-Nov-23 13:31N 37°56' E 023°39'0 0.0
2014-Nov-23 12:31N 37°56' E 023°39'0 0.0
2014-Nov-23 11:31N 37°56' E 023°39'0 0.0
2014-Nov-23 10:31N 37°56' E 023°39'0 0.0
2014-Nov-23 09:31N 37°56' E 023°39'0 0.0
2014-Nov-23 08:31N 37°56' E 023°39'0 0.0
2014-Nov-23 07:31N 37°56' E 023°39'0 0.0
2014-Nov-23 06:31N 37°56' E 023°39'0 0.0
2014-Nov-23 05:31N 37°56' E 023°39'0 0.0
2014-Nov-23 04:31N 37°56' E 023°39'0 0.0
2014-Nov-23 03:31N 37°56' E 023°39'0 0.0
2014-Nov-23 02:31N 37°56' E 023°39'0 0.0
2014-Nov-23 01:31N 37°56' E 023°39'0 0.0
2014-Nov-23 00:28N 37°56' E 023°39'0 0.0
2014-Nov-22 23:31N 37°56' E 023°39'0 0.0
2014-Nov-22 22:31N 37°56' E 023°39'0 0.0
2014-Nov-22 21:28N 37°56' E 023°39'0 0.0
2014-Nov-22 20:28N 37°56' E 023°39'0 0.0
2014-Nov-22 19:31N 37°56' E 023°39'0 0.0
2014-Nov-22 18:31N 37°56' E 023°39'0 0.0
2014-Nov-22 17:31N 37°56' E 023°39'0 0.0
2014-Nov-22 16:31N 37°56' E 023°39'0 0.0
2014-Nov-22 15:31N 37°56' E 023°39'0 0.0
2014-Nov-22 14:31N 37°56' E 023°39'0 0.0
2014-Nov-22 13:31N 37°56' E 023°39'0 0.0
2014-Nov-22 12:31N 37°56' E 023°39'0 0.0
2014-Nov-22 11:31N 37°56' E 023°39'0 0.0
2014-Nov-22 10:31N 37°56' E 023°39'0 0.0
2014-Nov-22 09:31N 37°56' E 023°39'0 0.0
2014-Nov-22 08:31N 37°56' E 023°39'0 0.0
2014-Nov-22 07:31N 37°56' E 023°39'0 0.0
2014-Nov-22 06:31N 37°56' E 023°39'0 0.0
2014-Nov-22 05:31N 37°56' E 023°39'0 0.0
2014-Nov-22 04:31N 37°56' E 023°39'0 0.0
2014-Nov-22 03:31N 37°56' E 023°39'0 0.0
2014-Nov-22 02:31N 37°56' E 023°39'0 0.0
2014-Nov-22 01:31N 37°56' E 023°39'0 0.0
2014-Nov-22 00:31N 37°56' E 023°39'0 0.0
2014-Nov-21 23:31N 37°56' E 023°39'0 0.0
2014-Nov-21 22:31N 37°56' E 023°39'0 0.0
2014-Nov-21 21:31N 37°56' E 023°39'0 0.0
2014-Nov-21 20:31N 37°56' E 023°39'0 0.0
2014-Nov-21 19:31N 37°56' E 023°39'0 0.0
2014-Nov-21 18:31N 37°56' E 023°39'0 0.0
2014-Nov-21 17:31N 37°56' E 023°39'0 0.0
2014-Nov-21 16:31N 37°56' E 023°39'0 0.0
2014-Nov-21 15:31N 37°56' E 023°39'0 0.0
2014-Nov-21 14:31N 37°56' E 023°39'0 0.0
2014-Nov-21 13:31N 37°56' E 023°39'0 0.0
2014-Nov-21 12:31N 37°56' E 023°39'0 0.0
2014-Nov-21 11:28N 37°56' E 023°39'0 0.0
2014-Nov-21 10:31N 37°56' E 023°39'0 0.0
2014-Nov-21 09:31N 37°56' E 023°39'0 0.0
2014-Nov-21 08:31N 37°56' E 023°39'0 0.0
2014-Nov-21 07:31N 37°56' E 023°39'0 0.0
2014-Nov-21 06:31N 37°56' E 023°39'0 0.0
2014-Nov-21 05:25N 37°56' E 023°39'0 0.0
2014-Nov-21 04:31N 37°56' E 023°39'0 0.0
2014-Nov-21 03:28N 37°56' E 023°39'0 0.0
2014-Nov-21 02:31N 37°56' E 023°39'0 0.0
2014-Nov-21 01:31N 37°56' E 023°39'0 0.0
2014-Nov-21 00:31N 37°56' E 023°39'0 0.0
2014-Nov-20 23:31N 37°56' E 023°39'0 0.0
2014-Nov-20 22:31N 37°56' E 023°39'0 0.0
2014-Nov-20 21:31N 37°56' E 023°39'0 0.0
2014-Nov-20 20:31N 37°56' E 023°39'0 0.0
2014-Nov-20 19:31N 37°56' E 023°39'0 0.0
2014-Nov-20 18:31N 37°56' E 023°39'0 0.0
2014-Nov-20 17:31N 37°56' E 023°39'0 0.0
2014-Nov-20 16:31N 37°56' E 023°39'0 0.0
2014-Nov-20 15:31N 37°56' E 023°39'0 0.0
2014-Nov-20 14:31N 37°56' E 023°39'0 0.0
2014-Nov-20 13:31N 37°56' E 023°39'0 0.0
2014-Nov-20 12:31N 37°56' E 023°39'0 0.0
2014-Nov-20 11:31N 37°56' E 023°39'0 0.0
2014-Nov-20 10:31N 37°56' E 023°39'0 0.0
2014-Nov-20 09:31N 37°56' E 023°39'0 0.0
2014-Nov-20 08:31N 37°56' E 023°39'0 0.0
2014-Nov-20 07:31N 37°56' E 023°39'0 0.0
2014-Nov-20 06:31N 37°56' E 023°39'0 0.0
2014-Nov-20 05:31N 37°56' E 023°39'0 0.0
2014-Nov-20 04:31N 37°56' E 023°39'0 0.0
2014-Nov-20 03:31N 37°56' E 023°39'0 0.0
2014-Nov-20 02:31N 37°56' E 023°39'0 0.0
2014-Nov-20 01:28N 37°56' E 023°39'0 0.0
2014-Nov-20 00:31N 37°56' E 023°39'0 0.0
2014-Nov-19 23:31N 37°56' E 023°39'0 0.0
2014-Nov-19 22:31N 37°56' E 023°39'0 0.0
2014-Nov-19 21:31N 37°56' E 023°39'0 0.0
2014-Nov-19 20:31N 37°56' E 023°39'0 0.0
2014-Nov-19 19:31N 37°56' E 023°39'0 0.0
2014-Nov-19 18:31N 37°56' E 023°39'0 0.0
2014-Nov-19 17:31N 37°56' E 023°39'0 0.0
2014-Nov-19 16:31N 37°56' E 023°39'0 0.0
2014-Nov-19 15:31N 37°56' E 023°39'0 0.0
2014-Nov-19 14:31N 37°56' E 023°39'0 0.0
2014-Nov-19 13:31N 37°56' E 023°39'0 0.0
2014-Nov-19 12:31N 37°56' E 023°39'0 0.0
2014-Nov-19 11:31N 37°56' E 023°39'0 0.0
2014-Nov-19 10:31N 37°56' E 023°39'0 0.0
2014-Nov-19 09:31N 37°56' E 023°39'0 0.0
2014-Nov-19 08:31N 37°56' E 023°39'0 0.0
2014-Nov-19 07:31N 37°56' E 023°39'0 0.0
2014-Nov-19 06:28N 37°56' E 023°39'0 0.0
2014-Nov-19 05:31N 37°56' E 023°39'0 0.0
2014-Nov-19 04:28N 37°56' E 023°39'0 0.0
2014-Nov-19 03:31N 37°56' E 023°39'0 0.0
2014-Nov-19 02:31N 37°56' E 023°39'0 0.0
2014-Nov-19 01:31N 37°56' E 023°39'  

Dump ship's entire track history